createdAt,value
2023-03-28T00:01:03.080Z,96927.86
2023-03-28T00:03:36.658Z,96925.58
2023-03-28T00:06:09.877Z,96918.88
2023-03-28T00:08:39.641Z,96915.29
2023-03-28T00:11:12.949Z,96917.48
2023-03-28T00:13:41.818Z,96917.98
2023-03-28T00:16:13.142Z,96912.56
2023-03-28T00:18:43.011Z,96912.85
2023-03-28T00:21:20.218Z,96913.02
2023-03-28T00:23:52.797Z,96914.63
2023-03-28T00:26:22.364Z,96916.83
2023-03-28T00:28:52.136Z,96914.52
2023-03-28T00:31:25.410Z,96919.64
2023-03-28T00:33:54.251Z,96923.98
2023-03-28T00:36:23.356Z,96921.91
2023-03-28T00:38:54.115Z,96920.54
2023-03-28T00:41:24.004Z,96915.72
2023-03-28T00:43:54.739Z,96916.88
2023-03-28T00:46:36.458Z,96915.18
2023-03-28T00:49:14.528Z,96913.48
2023-03-28T00:51:48.846Z,96910.68
2023-03-28T00:54:19.881Z,96908.64
2023-03-28T00:56:52.720Z,96909.02
2023-03-28T00:59:24.761Z,96908.69
2023-03-28T01:01:53.901Z,96903.91
2023-03-28T01:04:24.731Z,96899.21
2023-03-28T01:06:55.889Z,96899.08
2023-03-28T01:09:24.901Z,96898.35
2023-03-28T01:11:55.061Z,96900.78
2023-03-28T01:14:24.624Z,96901.77
2023-03-28T01:16:56.710Z,96905.00
2023-03-28T01:19:51.501Z,96905.33
2023-03-28T01:22:58.133Z,96910.38
2023-03-28T01:25:39.747Z,96910.25
2023-03-28T01:28:20.724Z,96911.88
2023-03-28T01:31:27.362Z,96915.27
2023-03-28T01:34:56.750Z,96914.34
2023-03-28T01:38:02.256Z,96912.84
2023-03-28T01:40:40.258Z,96906.17
2023-03-28T01:43:16.024Z,96909.73
2023-03-28T01:45:59.954Z,96918.78
2023-03-28T01:48:50.474Z,96922.70
2023-03-28T01:51:28.861Z,96921.37
2023-03-28T01:54:02.694Z,96921.16
2023-03-28T01:56:51.038Z,96930.69
2023-03-28T01:59:39.607Z,96933.20
2023-03-28T02:02:37.134Z,96922.58
2023-03-28T02:05:30.021Z,96929.84
2023-03-28T02:07:59.386Z,96931.73
2023-03-28T02:10:41.433Z,96932.18
2023-03-28T02:13:39.862Z,96933.62
2023-03-28T02:16:27.595Z,96928.35
2023-03-28T02:19:10.212Z,96935.21
2023-03-28T02:22:16.621Z,96940.09
2023-03-28T02:24:56.635Z,96938.36
2023-03-28T02:27:56.934Z,96941.22
2023-03-28T02:30:37.672Z,96942.38
2023-03-28T02:33:40.322Z,96947.30
2023-03-28T02:36:28.103Z,96946.91
2023-03-28T02:39:06.181Z,96955.58
2023-03-28T02:41:37.498Z,96962.48
2023-03-28T02:44:29.145Z,96956.42
2023-03-28T02:47:06.822Z,96968.67
2023-03-28T02:49:50.500Z,96971.25
2023-03-28T02:52:37.779Z,96968.80
2023-03-28T02:55:28.487Z,96977.32
2023-03-28T02:58:24.812Z,96988.52
2023-03-28T03:00:54.323Z,96984.25
2023-03-28T03:03:23.921Z,96997.13
2023-03-28T03:05:52.650Z,97006.12
2023-03-28T03:08:21.708Z,97006.46
2023-03-28T03:10:50.703Z,97014.42
2023-03-28T03:13:21.027Z,97015.52
2023-03-28T03:15:50.391Z,97012.09
2023-03-28T03:18:24.948Z,97009.40
2023-03-28T03:20:53.740Z,97019.69
2023-03-28T03:23:27.872Z,97024.30
2023-03-28T03:25:59.516Z,97022.83
2023-03-28T03:28:33.879Z,97028.65
2023-03-28T03:31:06.724Z,97027.27
2023-03-28T03:33:53.825Z,97034.77
2023-03-28T03:36:27.422Z,97041.02
2023-03-28T03:38:56.675Z,97041.77
2023-03-28T03:41:25.520Z,97046.54
2023-03-28T03:43:55.482Z,97053.05
2023-03-28T03:46:24.308Z,97041.64
2023-03-28T03:48:55.983Z,97049.92
2023-03-28T03:51:24.755Z,97055.64
2023-03-28T03:53:58.028Z,97060.55
2023-03-28T03:56:33.509Z,97058.73
2023-03-28T03:59:02.584Z,97066.61
2023-03-28T04:01:35.165Z,97078.85
2023-03-28T04:04:25.100Z,97078.89
2023-03-28T04:07:12.695Z,97075.39
2023-03-28T04:09:41.156Z,97087.46
2023-03-28T04:12:10.667Z,97090.02
2023-03-28T04:14:47.741Z,97093.09
2023-03-28T04:17:41.518Z,97099.20
2023-03-28T04:20:17.655Z,97102.59
2023-03-28T04:23:08.741Z,97102.83
2023-03-28T04:25:42.702Z,97090.46
2023-03-28T04:28:16.967Z,97103.08
2023-03-28T04:31:00.531Z,97113.59
2023-03-28T04:33:57.063Z,97115.72
2023-03-28T04:36:26.111Z,97115.45
2023-03-28T04:39:04.012Z,97116.92
2023-03-28T04:41:55.784Z,97129.05
2023-03-28T04:44:42.968Z,97139.40
2023-03-28T04:47:13.060Z,97131.04
2023-03-28T04:49:41.632Z,97144.86
2023-03-28T04:52:10.145Z,97137.05
2023-03-28T04:54:39.219Z,97128.45
2023-03-28T04:57:18.898Z,97149.00
2023-03-28T04:59:50.698Z,97161.77
2023-03-28T05:02:25.185Z,97158.85
2023-03-28T05:05:02.077Z,97156.44
2023-03-28T05:07:31.305Z,97162.48
2023-03-28T05:10:00.600Z,97164.77
2023-03-28T05:12:37.996Z,97169.95
2023-03-28T05:15:07.515Z,97172.44
2023-03-28T05:17:46.593Z,97170.95
2023-03-28T05:20:28.999Z,97161.77
2023-03-28T05:22:58.648Z,97165.69
2023-03-28T05:25:27.166Z,97151.97
2023-03-28T05:27:56.635Z,97166.99
2023-03-28T05:30:25.925Z,97163.45
2023-03-28T05:32:58.775Z,97161.59
2023-03-28T05:35:27.101Z,97157.86
2023-03-28T05:37:55.980Z,97165.70
2023-03-28T05:40:24.557Z,97161.58
2023-03-28T05:45:43.414Z,97162.73
2023-03-28T05:48:18.345Z,97162.58
2023-03-28T05:50:49.191Z,97169.73
2023-03-28T05:53:17.966Z,97164.48
2023-03-28T05:55:45.320Z,97168.32
2023-03-28T05:58:13.803Z,97165.04
2023-03-28T06:00:42.211Z,97162.48
2023-03-28T06:03:17.207Z,97172.65
2023-03-28T06:05:45.810Z,97178.64
2023-03-28T06:08:24.005Z,97188.31
2023-03-28T06:11:00.067Z,97188.64
2023-03-28T06:13:30.906Z,97187.08
2023-03-28T06:15:58.657Z,97175.73
2023-03-28T06:18:35.097Z,97194.52
2023-03-28T06:21:04.061Z,97174.45
2023-03-28T06:23:31.711Z,97194.45
2023-03-28T06:25:59.135Z,97187.56
2023-03-28T06:28:32.263Z,97201.73
2023-03-28T06:31:45.652Z,97190.04
2023-03-28T06:34:13.424Z,97209.56
2023-03-28T06:36:50.919Z,97215.73
2023-03-28T06:39:18.064Z,97219.16
2023-03-28T06:41:45.538Z,97221.23
2023-03-28T06:44:12.576Z,97229.77
2023-03-28T06:46:49.200Z,97241.20
2023-03-28T06:49:16.713Z,97241.01
2023-03-28T06:52:07.562Z,97230.10
2023-03-28T06:54:35.378Z,97234.91
2023-03-28T06:57:03.586Z,97249.05
2023-03-28T06:59:31.849Z,97258.12
2023-03-28T07:02:02.712Z,97252.02
2023-03-28T07:04:40.161Z,97251.65
2023-03-28T07:07:09.522Z,97252.66
2023-03-28T07:09:36.717Z,97267.83
2023-03-28T07:12:09.082Z,97251.64
2023-03-28T07:14:42.473Z,97253.70
2023-03-28T07:17:13.182Z,97234.92
2023-03-28T07:19:45.587Z,97250.18
2023-03-28T07:22:12.724Z,97262.98
2023-03-28T07:24:40.112Z,97252.19
2023-03-28T07:27:16.477Z,97264.96
2023-03-28T07:29:45.657Z,97254.79
2023-03-28T07:32:16.380Z,97253.96
2023-03-28T07:34:45.380Z,97260.70
2023-03-28T07:37:17.340Z,97248.39
2023-03-28T07:39:57.089Z,97267.73
2023-03-28T07:42:26.554Z,97260.17
2023-03-28T07:44:53.951Z,97252.38
2023-03-28T07:47:21.184Z,97268.30
2023-03-28T07:49:49.774Z,97248.71
2023-03-28T07:52:20.209Z,97264.79
2023-03-28T07:54:48.376Z,97266.21
2023-03-28T07:57:15.818Z,97274.48
2023-03-28T08:00:12.336Z,97278.31
2023-03-28T08:02:45.020Z,97269.36
2023-03-28T08:05:13.169Z,97271.20
2023-03-28T08:07:45.485Z,97272.20
2023-03-28T08:10:13.264Z,97271.14
2023-03-28T08:12:46.233Z,97283.15
2023-03-28T08:15:19.324Z,97281.65
2023-03-28T08:17:46.723Z,97270.87
2023-03-28T08:20:20.942Z,97285.92
2023-03-28T08:23:22.267Z,97284.48
2023-03-28T08:26:19.499Z,97287.49
2023-03-28T08:28:50.712Z,97290.73
2023-03-28T08:31:17.929Z,97279.11
2023-03-28T08:33:52.728Z,97287.34
2023-03-28T08:36:25.403Z,97266.09
2023-03-28T08:38:54.569Z,97282.55
2023-03-28T08:41:40.808Z,97291.49
2023-03-28T08:44:11.126Z,97301.84
2023-03-28T08:46:41.207Z,97303.61
2023-03-28T08:49:12.056Z,97297.88
2023-03-28T08:51:42.362Z,97282.27
2023-03-28T08:54:09.960Z,97287.02
2023-03-28T08:56:42.709Z,97284.58
2023-03-28T08:59:12.784Z,97292.63
2023-03-28T09:01:39.947Z,97290.08
2023-03-28T09:04:35.858Z,97293.00
2023-03-28T09:07:21.924Z,97314.40
2023-03-28T09:10:25.024Z,97298.89
2023-03-28T09:13:22.982Z,97297.98
2023-03-28T09:16:21.505Z,97293.92
2023-03-28T09:19:47.185Z,97318.41
2023-03-28T09:23:01.869Z,97336.70
2023-03-28T09:25:48.623Z,97310.41
2023-03-28T09:28:31.689Z,97302.52
2023-03-28T09:31:00.318Z,97335.77
2023-03-28T09:33:33.223Z,97318.60
2023-03-28T09:36:01.477Z,97333.80
2023-03-28T09:38:33.039Z,97341.79
2023-03-28T09:41:03.208Z,97341.80
2023-03-28T09:43:45.437Z,97329.44
2023-03-28T09:46:43.315Z,97342.78
2023-03-28T09:49:34.841Z,97356.16
2023-03-28T09:52:13.927Z,97350.36
2023-03-28T09:54:42.628Z,97370.95
2023-03-28T09:57:09.974Z,97372.88
2023-03-28T09:59:57.185Z,97369.52
2023-03-28T10:02:27.887Z,97384.58
2023-03-28T10:04:55.716Z,97370.30
2023-03-28T10:07:50.787Z,97372.46
2023-03-28T10:10:59.486Z,97360.11
2023-03-28T10:13:36.428Z,97390.40
2023-03-28T10:16:04.508Z,97383.44
2023-03-28T10:26:34.015Z,97382.16
2023-03-28T10:29:05.517Z,97399.35
2023-03-28T10:31:34.717Z,97402.52
2023-03-28T10:34:37.243Z,97399.92
2023-03-28T10:37:27.939Z,97418.22
2023-03-28T10:40:18.412Z,97414.75
2023-03-28T10:43:14.186Z,97430.94
2023-03-28T10:45:53.613Z,97431.04
2023-03-28T10:48:30.624Z,97412.11
2023-03-28T10:51:08.413Z,97424.63
2023-03-28T10:53:52.637Z,97406.01
2023-03-28T10:56:39.420Z,97437.36
2023-03-28T10:59:21.746Z,97440.98
2023-03-28T11:02:19.582Z,97432.02
2023-03-28T11:05:29.725Z,97456.60
2023-03-28T11:07:59.077Z,97452.48
2023-03-28T11:11:11.074Z,97453.39
2023-03-28T11:14:23.125Z,97452.04
2023-03-28T11:16:59.104Z,97459.79
2023-03-28T11:20:17.847Z,97473.78
2023-03-28T11:23:19.646Z,97452.86
2023-03-28T11:26:24.176Z,97463.48
2023-03-28T11:29:17.126Z,97472.17
2023-03-28T11:32:03.177Z,97473.53
2023-03-28T11:34:44.343Z,97477.48
2023-03-28T11:37:19.161Z,97473.91
2023-03-28T11:39:55.670Z,97486.15
2023-03-28T11:42:36.274Z,97487.12
2023-03-28T11:45:50.318Z,97491.13
2023-03-28T11:48:29.208Z,97488.92
2023-03-28T11:51:21.904Z,97513.61
2023-03-28T11:54:19.651Z,97516.68
2023-03-28T11:56:55.692Z,97508.29
2023-03-28T12:00:01.498Z,97513.73
2023-03-28T12:02:43.026Z,97510.46
2023-03-28T12:05:18.585Z,97497.80
2023-03-28T12:07:53.210Z,97514.98
2023-03-28T12:10:40.165Z,97532.93
2023-03-28T12:13:46.291Z,97528.08
2023-03-28T12:16:18.946Z,97531.66
2023-03-28T12:18:49.830Z,97532.05
2023-03-28T12:21:35.902Z,97541.22
2023-03-28T12:24:11.551Z,97539.12
2023-03-28T12:27:28.568Z,97533.64
2023-03-28T12:30:21.451Z,97554.00
2023-03-28T12:33:13.385Z,97547.06
2023-03-28T12:35:58.533Z,97534.30
2023-03-28T12:38:47.790Z,97530.56
2023-03-28T13:05:57.665Z,97585.15
2023-03-28T13:08:48.978Z,97583.00
2023-03-28T13:11:39.681Z,97603.63
2023-03-28T13:14:27.430Z,97613.48
2023-03-28T13:16:59.275Z,97593.29
2023-03-28T13:19:51.302Z,97616.40
2023-03-28T13:22:28.177Z,97621.50
2023-03-28T13:25:22.078Z,97615.94
2023-03-28T13:27:50.437Z,97632.69
2023-03-28T13:30:31.928Z,97630.73
2023-03-28T13:33:07.602Z,97639.10
2023-03-28T13:35:38.101Z,97640.91
2023-03-28T13:38:27.469Z,97653.63
2023-03-28T13:40:55.654Z,97619.15
2023-03-28T13:43:35.382Z,97631.36
2023-03-28T13:46:15.664Z,97629.32
2023-03-28T13:48:51.225Z,97631.35
2023-03-28T13:51:27.140Z,97641.73
2023-03-28T13:53:54.498Z,97662.93
2023-03-28T13:56:25.063Z,97675.98
